sensor_id;sensor_type;location;lat;lon;timestamp;P1;durP1;ratioP1;P2;durP2;ratioP2
52072;SDS011;38074;51.232;6.826;2023-02-18T00:02:38;0.70;;;0.30;;
52072;SDS011;38074;51.232;6.826;2023-02-18T00:09:54;1.90;;;0.40;;
52072;SDS011;38074;51.232;6.826;2023-02-18T00:17:10;1.30;;;0.50;;
52072;SDS011;38074;51.232;6.826;2023-02-18T00:24:25;0.73;;;0.33;;
52072;SDS011;38074;51.232;6.826;2023-02-18T00:31:41;0.60;;;0.40;;
52072;SDS011;38074;51.232;6.826;2023-02-18T00:38:57;1.07;;;0.47;;
52072;SDS011;38074;51.232;6.826;2023-02-18T00:46:14;1.13;;;0.40;;
52072;SDS011;38074;51.232;6.826;2023-02-18T00:53:30;1.90;;;0.40;;
52072;SDS011;38074;51.232;6.826;2023-02-18T01:00:46;0.90;;;0.50;;
52072;SDS011;38074;51.232;6.826;2023-02-18T01:08:01;1.08;;;0.47;;
52072;SDS011;38074;51.232;6.826;2023-02-18T01:15:18;0.57;;;0.30;;
52072;SDS011;38074;51.232;6.826;2023-02-18T01:22:33;0.98;;;0.40;;
52072;SDS011;38074;51.232;6.826;2023-02-18T01:29:49;1.55;;;0.20;;
52072;SDS011;38074;51.232;6.826;2023-02-18T01:37:05;1.00;;;0.37;;
52072;SDS011;38074;51.232;6.826;2023-02-18T01:44:24;1.73;;;0.40;;
52072;SDS011;38074;51.232;6.826;2023-02-18T01:51:52;1.83;;;0.40;;
52072;SDS011;38074;51.232;6.826;2023-02-18T01:59:15;0.70;;;0.30;;
52072;SDS011;38074;51.232;6.826;2023-02-18T02:06:34;1.13;;;0.40;;
52072;SDS011;38074;51.232;6.826;2023-02-18T02:13:58;2.08;;;0.30;;
52072;SDS011;38074;51.232;6.826;2023-02-18T02:36:38;0.95;;;0.32;;
52072;SDS011;38074;51.232;6.826;2023-02-18T02:44:21;1.08;;;0.30;;
52072;SDS011;38074;51.232;6.826;2023-02-18T02:52:18;1.25;;;0.28;;
52072;SDS011;38074;51.232;6.826;2023-02-18T02:59:35;1.73;;;0.30;;
52072;SDS011;38074;51.232;6.826;2023-02-18T03:07:00;0.82;;;0.40;;
52072;SDS011;38074;51.232;6.826;2023-02-18T03:14:26;2.08;;;0.45;;
52072;SDS011;38074;51.232;6.826;2023-02-18T03:21:58;0.40;;;0.20;;
52072;SDS011;38074;51.232;6.826;2023-02-18T03:29:24;0.30;;;0.20;;
52072;SDS011;38074;51.232;6.826;2023-02-18T03:36:41;0.63;;;0.30;;
52072;SDS011;38074;51.232;6.826;2023-02-18T03:43:59;1.00;;;0.40;;
52072;SDS011;38074;51.232;6.826;2023-02-18T03:51:15;1.40;;;0.30;;
52072;SDS011;38074;51.232;6.826;2023-02-18T03:58:31;0.20;;;0.20;;
52072;SDS011;38074;51.232;6.826;2023-02-18T04:05:46;0.90;;;0.20;;
52072;SDS011;38074;51.232;6.826;2023-02-18T04:13:02;0.77;;;0.23;;
52072;SDS011;38074;51.232;6.826;2023-02-18T04:20:18;1.38;;;0.20;;
52072;SDS011;38074;51.232;6.826;2023-02-18T04:27:33;1.13;;;0.30;;
52072;SDS011;38074;51.232;6.826;2023-02-18T04:34:49;0.60;;;0.20;;
52072;SDS011;38074;51.232;6.826;2023-02-18T04:42:04;0.63;;;0.23;;
52072;SDS011;38074;51.232;6.826;2023-02-18T04:49:22;0.47;;;0.10;;
52072;SDS011;38074;51.232;6.826;2023-02-18T04:56:38;0.30;;;0.17;;
52072;SDS011;38074;51.232;6.826;2023-02-18T05:03:53;0.23;;;0.20;;
52072;SDS011;38074;51.232;6.826;2023-02-18T05:11:09;0.40;;;0.10;;
52072;SDS011;38074;51.232;6.826;2023-02-18T05:18:24;0.40;;;0.10;;
52072;SDS011;38074;51.232;6.826;2023-02-18T05:25:40;0.47;;;0.20;;
52072;SDS011;38074;51.232;6.826;2023-02-18T05:32:56;0.30;;;0.10;;
52072;SDS011;38074;51.232;6.826;2023-02-18T05:40:11;1.33;;;0.23;;
52072;SDS011;38074;51.232;6.826;2023-02-18T05:47:27;0.20;;;0.20;;
52072;SDS011;38074;51.232;6.826;2023-02-18T05:54:42;0.30;;;0.20;;
52072;SDS011;38074;51.232;6.826;2023-02-18T06:01:58;0.30;;;0.28;;
52072;SDS011;38074;51.232;6.826;2023-02-18T06:09:14;0.75;;;0.20;;
52072;SDS011;38074;51.232;6.826;2023-02-18T06:16:30;0.47;;;0.20;;
52072;SDS011;38074;51.232;6.826;2023-02-18T06:23:46;0.40;;;0.20;;
52072;SDS011;38074;51.232;6.826;2023-02-18T06:31:01;0.20;;;0.10;;
52072;SDS011;38074;51.232;6.826;2023-02-18T06:38:17;0.85;;;0.20;;
52072;SDS011;38074;51.232;6.826;2023-02-18T06:45:32;1.57;;;0.23;;
52072;SDS011;38074;51.232;6.826;2023-02-18T06:52:48;1.10;;;0.50;;
52072;SDS011;38074;51.232;6.826;2023-02-18T07:00:04;1.43;;;0.23;;
52072;SDS011;38074;51.232;6.826;2023-02-18T07:07:20;2.65;;;0.22;;
52072;SDS011;38074;51.232;6.826;2023-02-18T07:14:35;1.90;;;0.40;;
52072;SDS011;38074;51.232;6.826;2023-02-18T07:21:51;2.00;;;0.27;;
52072;SDS011;38074;51.232;6.826;2023-02-18T07:29:08;2.35;;;0.20;;
52072;SDS011;38074;51.232;6.826;2023-02-18T07:36:23;2.53;;;0.30;;
52072;SDS011;38074;51.232;6.826;2023-02-18T07:43:39;9.03;;;0.50;;
52072;SDS011;38074;51.232;6.826;2023-02-18T07:50:54;10.40;;;0.80;;
52072;SDS011;38074;51.232;6.826;2023-02-18T07:58:10;3.50;;;0.50;;
52072;SDS011;38074;51.232;6.826;2023-02-18T08:05:25;6.43;;;0.63;;
52072;SDS011;38074;51.232;6.826;2023-02-18T08:12:41;3.07;;;0.50;;
52072;SDS011;38074;51.232;6.826;2023-02-18T08:19:56;1.80;;;0.30;;
52072;SDS011;38074;51.232;6.826;2023-02-18T08:27:12;3.27;;;0.30;;
52072;SDS011;38074;51.232;6.826;2023-02-18T08:34:28;3.08;;;0.40;;
52072;SDS011;38074;51.232;6.826;2023-02-18T08:41:44;7.07;;;0.90;;
52072;SDS011;38074;51.232;6.826;2023-02-18T08:48:59;2.03;;;0.20;;
52072;SDS011;38074;51.232;6.826;2023-02-18T08:56:15;3.20;;;0.63;;
52072;SDS011;38074;51.232;6.826;2023-02-18T09:03:32;1.97;;;0.50;;
52072;SDS011;38074;51.232;6.826;2023-02-18T09:10:47;1.70;;;0.45;;
52072;SDS011;38074;51.232;6.826;2023-02-18T09:18:03;1.10;;;0.30;;
52072;SDS011;38074;51.232;6.826;2023-02-18T09:25:18;1.55;;;0.28;;
52072;SDS011;38074;51.232;6.826;2023-02-18T09:32:34;4.20;;;0.63;;
52072;SDS011;38074;51.232;6.826;2023-02-18T09:39:49;3.60;;;0.40;;
52072;SDS011;38074;51.232;6.826;2023-02-18T09:47:08;2.47;;;0.70;;
52072;SDS011;38074;51.232;6.826;2023-02-18T09:54:32;5.10;;;0.30;;
52072;SDS011;38074;51.232;6.826;2023-02-18T10:01:47;5.60;;;0.40;;
52072;SDS011;38074;51.232;6.826;2023-02-18T10:09:28;8.20;;;0.70;;
52072;SDS011;38074;51.232;6.826;2023-02-18T10:16:53;5.60;;;0.80;;
52072;SDS011;38074;51.232;6.826;2023-02-18T10:31:43;15.10;;;2.95;;
52072;SDS011;38074;51.232;6.826;2023-02-18T10:39:18;10.52;;;2.55;;
52072;SDS011;38074;51.232;6.826;2023-02-18T10:54:02;14.50;;;2.42;;
52072;SDS011;38074;51.232;6.826;2023-02-18T11:01:18;12.82;;;2.65;;
52072;SDS011;38074;51.232;6.826;2023-02-18T11:08:37;9.68;;;2.10;;
52072;SDS011;38074;51.232;6.826;2023-02-18T11:15:58;18.45;;;2.58;;
52072;SDS011;38074;51.232;6.826;2023-02-18T11:23:21;11.25;;;1.80;;
52072;SDS011;38074;51.232;6.826;2023-02-18T11:30:40;14.57;;;2.63;;
52072;SDS011;38074;51.232;6.826;2023-02-18T11:37:58;13.18;;;2.38;;
52072;SDS011;38074;51.232;6.826;2023-02-18T11:45:27;12.70;;;1.98;;
52072;SDS011;38074;51.232;6.826;2023-02-18T11:52:45;16.80;;;2.42;;
52072;SDS011;38074;51.232;6.826;2023-02-18T12:00:03;8.68;;;1.88;;
52072;SDS011;38074;51.232;6.826;2023-02-18T12:07:30;14.95;;;1.85;;
52072;SDS011;38074;51.232;6.826;2023-02-18T12:15:00;10.35;;;1.95;;
52072;SDS011;38074;51.232;6.826;2023-02-18T12:22:26;9.80;;;1.75;;
52072;SDS011;38074;51.232;6.826;2023-02-18T12:38:11;6.63;;;1.48;;
52072;SDS011;38074;51.232;6.826;2023-02-18T12:45:38;7.70;;;1.77;;
52072;SDS011;38074;51.232;6.826;2023-02-18T13:15:47;3.05;;;0.70;;
52072;SDS011;38074;51.232;6.826;2023-02-18T13:23:09;7.18;;;1.20;;
52072;SDS011;38074;51.232;6.826;2023-02-18T13:38:09;3.28;;;0.70;;
52072;SDS011;38074;51.232;6.826;2023-02-18T13:45:37;2.15;;;0.65;;
52072;SDS011;38074;51.232;6.826;2023-02-18T14:00:23;3.78;;;0.82;;
52072;SDS011;38074;51.232;6.826;2023-02-18T14:07:49;2.60;;;0.65;;
52072;SDS011;38074;51.232;6.826;2023-02-18T14:22:43;2.45;;;0.60;;
52072;SDS011;38074;51.232;6.826;2023-02-18T14:30:02;3.00;;;0.50;;
52072;SDS011;38074;51.232;6.826;2023-02-18T14:52:38;1.98;;;0.30;;
52072;SDS011;38074;51.232;6.826;2023-02-18T15:00:03;1.42;;;0.50;;
52072;SDS011;38074;51.232;6.826;2023-02-18T15:07:21;1.58;;;0.65;;
52072;SDS011;38074;51.232;6.826;2023-02-18T15:14:37;3.28;;;0.52;;
52072;SDS011;38074;51.232;6.826;2023-02-18T15:21:56;1.77;;;0.50;;
52072;SDS011;38074;51.232;6.826;2023-02-18T15:29:17;2.58;;;0.50;;
52072;SDS011;38074;51.232;6.826;2023-02-18T15:36:35;2.08;;;0.40;;
52072;SDS011;38074;51.232;6.826;2023-02-18T15:43:54;2.63;;;0.60;;
52072;SDS011;38074;51.232;6.826;2023-02-18T15:51:20;1.65;;;0.43;;
52072;SDS011;38074;51.232;6.826;2023-02-18T15:58:40;0.90;;;0.30;;
52072;SDS011;38074;51.232;6.826;2023-02-18T16:06:15;2.53;;;0.60;;
52072;SDS011;38074;51.232;6.826;2023-02-18T16:13:58;0.63;;;0.28;;
52072;SDS011;38074;51.232;6.826;2023-02-18T16:28:32;11.02;;;0.73;;
52072;SDS011;38074;51.232;6.826;2023-02-18T16:35:49;3.40;;;0.50;;
52072;SDS011;38074;51.232;6.826;2023-02-18T16:43:12;4.15;;;0.50;;
52072;SDS011;38074;51.232;6.826;2023-02-18T16:50:29;10.48;;;0.70;;
52072;SDS011;38074;51.232;6.826;2023-02-18T16:57:47;5.82;;;0.47;;
52072;SDS011;38074;51.232;6.826;2023-02-18T17:05:02;4.20;;;0.50;;
52072;SDS011;38074;51.232;6.826;2023-02-18T17:12:18;2.93;;;0.60;;
52072;SDS011;38074;51.232;6.826;2023-02-18T17:19:33;2.83;;;0.63;;
52072;SDS011;38074;51.232;6.826;2023-02-18T17:26:49;6.67;;;0.80;;
52072;SDS011;38074;51.232;6.826;2023-02-18T17:34:05;7.20;;;0.83;;
52072;SDS011;38074;51.232;6.826;2023-02-18T17:41:22;4.78;;;0.70;;
52072;SDS011;38074;51.232;6.826;2023-02-18T17:48:38;2.43;;;0.67;;
52072;SDS011;38074;51.232;6.826;2023-02-18T17:55:54;4.93;;;0.63;;
52072;SDS011;38074;51.232;6.826;2023-02-18T18:03:13;3.47;;;0.33;;
52072;SDS011;38074;51.232;6.826;2023-02-18T18:10:31;3.10;;;0.65;;
52072;SDS011;38074;51.232;6.826;2023-02-18T18:17:48;3.75;;;0.50;;
52072;SDS011;38074;51.232;6.826;2023-02-18T18:32:40;3.57;;;0.80;;
52072;SDS011;38074;51.232;6.826;2023-02-18T18:39:55;2.43;;;0.53;;
52072;SDS011;38074;51.232;6.826;2023-02-18T18:47:11;1.83;;;0.37;;
52072;SDS011;38074;51.232;6.826;2023-02-18T18:54:26;3.07;;;0.60;;
52072;SDS011;38074;51.232;6.826;2023-02-18T19:01:42;1.33;;;0.23;;
52072;SDS011;38074;51.232;6.826;2023-02-18T19:08:57;2.40;;;0.30;;
52072;SDS011;38074;51.232;6.826;2023-02-18T19:24:04;2.60;;;0.52;;
52072;SDS011;38074;51.232;6.826;2023-02-18T19:31:19;4.77;;;0.50;;
52072;SDS011;38074;51.232;6.826;2023-02-18T19:38:38;3.80;;;0.68;;
52072;SDS011;38074;51.232;6.826;2023-02-18T19:45:53;3.03;;;0.50;;
52072;SDS011;38074;51.232;6.826;2023-02-18T19:53:09;5.10;;;1.20;;
52072;SDS011;38074;51.232;6.826;2023-02-18T20:00:25;2.92;;;1.00;;
52072;SDS011;38074;51.232;6.826;2023-02-18T20:07:41;3.20;;;1.00;;
52072;SDS011;38074;51.232;6.826;2023-02-18T20:14:57;3.15;;;1.20;;
52072;SDS011;38074;51.232;6.826;2023-02-18T20:22:12;4.60;;;1.20;;
52072;SDS011;38074;51.232;6.826;2023-02-18T20:29:28;5.73;;;1.53;;
52072;SDS011;38074;51.232;6.826;2023-02-18T20:36:44;7.73;;;1.50;;
52072;SDS011;38074;51.232;6.826;2023-02-18T20:44:03;7.55;;;1.05;;
52072;SDS011;38074;51.232;6.826;2023-02-18T20:51:20;3.83;;;0.93;;
52072;SDS011;38074;51.232;6.826;2023-02-18T20:58:36;4.63;;;1.30;;
52072;SDS011;38074;51.232;6.826;2023-02-18T21:05:53;5.07;;;1.23;;
52072;SDS011;38074;51.232;6.826;2023-02-18T21:13:09;2.78;;;0.98;;
52072;SDS011;38074;51.232;6.826;2023-02-18T21:20:25;4.60;;;1.13;;
52072;SDS011;38074;51.232;6.826;2023-02-18T21:27:40;2.77;;;0.83;;
52072;SDS011;38074;51.232;6.826;2023-02-18T21:34:56;3.20;;;0.70;;
52072;SDS011;38074;51.232;6.826;2023-02-18T21:42:11;6.30;;;1.10;;
52072;SDS011;38074;51.232;6.826;2023-02-18T21:49:27;2.80;;;1.13;;
52072;SDS011;38074;51.232;6.826;2023-02-18T21:56:42;8.57;;;1.00;;
52072;SDS011;38074;51.232;6.826;2023-02-18T22:03:58;4.20;;;0.90;;
52072;SDS011;38074;51.232;6.826;2023-02-18T22:11:13;5.47;;;0.97;;
52072;SDS011;38074;51.232;6.826;2023-02-18T22:18:30;4.63;;;0.83;;
52072;SDS011;38074;51.232;6.826;2023-02-18T22:25:46;2.38;;;0.55;;
52072;SDS011;38074;51.232;6.826;2023-02-18T22:33:03;4.22;;;1.05;;
52072;SDS011;38074;51.232;6.826;2023-02-18T22:40:18;2.07;;;0.57;;
52072;SDS011;38074;51.232;6.826;2023-02-18T22:47:34;2.77;;;0.60;;
52072;SDS011;38074;51.232;6.826;2023-02-18T22:54:49;3.80;;;0.50;;
52072;SDS011;38074;51.232;6.826;2023-02-18T23:02:05;3.70;;;0.70;;
52072;SDS011;38074;51.232;6.826;2023-02-18T23:09:21;2.87;;;0.70;;
52072;SDS011;38074;51.232;6.826;2023-02-18T23:16:38;2.40;;;0.50;;
52072;SDS011;38074;51.232;6.826;2023-02-18T23:24:14;1.88;;;0.50;;
52072;SDS011;38074;51.232;6.826;2023-02-18T23:31:30;2.85;;;0.60;;
52072;SDS011;38074;51.232;6.826;2023-02-18T23:38:46;1.10;;;0.60;;
52072;SDS011;38074;51.232;6.826;2023-02-18T23:46:03;3.42;;;0.50;;
52072;SDS011;38074;51.232;6.826;2023-02-18T23:53:18;1.42;;;0.60;;
